Time;durP1;ratioP1;P1;durP2;ratioP2;P2;SDS_P1;SDS_P2;PMS_P1;PMS_P2;Temp;Humidity;BMP_temperature;BMP_pressure;BME280_temperature;BME280_humidity;BME280_pressure;Samples;Min_cycle;Max_cycle;Signal;HPM_P1;HPM_P2
2022/04/22 00:00:06;;;;;;;9.63;8.10;;;10.50;99.90;;;;;;4937343;29;20192;-63
2022/04/22 00:02:34;;;;;;;9.17;8.27;;;10.50;99.90;;;;;;4937582;29;20202;-63
2022/04/22 00:05:01;;;;;;;9.60;8.00;;;10.40;99.90;;;;;;4937076;29;20545;-62
2022/04/22 00:07:29;;;;;;;10.10;8.40;;;10.40;99.90;;;;;;4936657;29;20205;-62
2022/04/22 00:09:57;;;;;;;8.97;8.17;;;10.40;99.90;;;;;;4936483;29;20212;-64
2022/04/22 00:12:24;;;;;;;9.67;8.77;;;10.40;99.90;;;;;;4935755;29;20579;-63
2022/04/22 00:14:51;;;;;;;8.90;8.10;;;10.40;99.90;;;;;;4936536;29;20202;-63
2022/04/22 00:17:19;;;;;;;9.17;8.27;;;10.30;99.90;;;;;;4937857;29;20268;-63
2022/04/22 00:19:46;;;;;;;8.97;8.00;;;10.30;99.90;;;;;;4936817;29;20218;-63
2022/04/22 00:22:13;;;;;;;9.80;8.87;;;10.30;99.90;;;;;;4936785;29;20203;-63
2022/04/22 00:24:40;;;;;;;9.30;8.40;;;10.20;99.90;;;;;;4937063;29;20217;-63
2022/04/22 00:27:07;;;;;;;10.30;9.13;;;10.20;99.90;;;;;;4936927;29;20200;-64
2022/04/22 00:29:34;;;;;;;9.60;8.67;;;10.20;99.90;;;;;;4936534;29;20204;-63
2022/04/22 00:32:01;;;;;;;9.83;8.83;;;10.20;99.90;;;;;;4936645;29;20234;-63
2022/04/22 00:34:29;;;;;;;9.33;8.43;;;10.10;99.90;;;;;;4936869;29;20295;-62
2022/04/22 00:36:56;;;;;;;9.40;8.50;;;10.10;99.90;;;;;;4936846;29;20212;-63
2022/04/22 00:39:24;;;;;;;9.60;8.70;;;10.00;99.90;;;;;;4936884;29;20205;-63
2022/04/22 00:41:51;;;;;;;10.03;9.00;;;10.00;99.90;;;;;;4936691;29;20208;-63
2022/04/22 00:44:17;;;;;;;10.13;9.13;;;10.00;99.90;;;;;;4936721;29;20203;-63
2022/04/22 00:46:45;;;;;;;9.80;8.93;;;9.90;99.90;;;;;;4935927;29;20526;-62
2022/04/22 00:49:11;;;;;;;11.97;9.37;;;9.90;99.90;;;;;;4936663;29;20201;-63
2022/04/22 00:51:40;;;;;;;11.00;9.90;;;9.80;99.90;;;;;;4936019;29;20225;-63
2022/04/22 00:54:09;;;;;;;10.87;9.77;;;9.90;99.90;;;;;;4936503;29;20222;-63
2022/04/22 00:56:37;;;;;;;10.47;9.57;;;9.90;99.90;;;;;;4936087;29;20291;-63
2022/04/22 00:59:04;;;;;;;9.90;8.83;;;9.80;99.90;;;;;;4936173;29;20210;-63
2022/04/22 01:01:32;;;;;;;11.23;10.13;;;9.80;99.90;;;;;;4936206;29;20204;-63
2022/04/22 01:09:48;;;;;;;11.17;9.73;;;9.70;99.90;;;;;;4936272;29;20591;-63
2022/04/22 01:12:16;;;;;;;11.03;9.93;;;9.70;99.90;;;;;;4935895;29;20318;-63
2022/04/22 01:14:43;;;;;;;11.23;10.13;;;9.70;99.90;;;;;;4936110;29;20223;-63
2022/04/22 01:17:10;;;;;;;13.10;10.70;;;9.60;99.90;;;;;;4936106;29;20202;-63
2022/04/22 01:19:37;;;;;;;11.33;10.40;;;9.60;99.90;;;;;;4935964;29;20220;-63
2022/04/22 01:22:07;;;;;;;11.17;10.23;;;9.60;99.90;;;;;;4935882;29;20276;-63
2022/04/22 01:24:34;;;;;;;10.93;9.83;;;9.60;99.90;;;;;;4936025;29;20204;-63
2022/04/22 01:27:02;;;;;;;11.50;10.43;;;9.60;99.90;;;;;;4936042;29;20290;-63
2022/04/22 01:29:29;;;;;;;11.23;10.23;;;9.60;99.90;;;;;;4937558;29;20195;-63
2022/04/22 01:31:55;;;;;;;13.13;11.70;;;9.60;99.90;;;;;;4935604;29;20245;-63
2022/04/22 01:34:23;;;;;;;13.40;12.00;;;9.60;99.90;;;;;;4935671;29;20304;-63
2022/04/22 01:36:50;;;;;;;11.93;10.73;;;9.60;99.90;;;;;;4935600;29;20235;-63
2022/04/22 01:39:18;;;;;;;12.50;11.37;;;9.60;99.90;;;;;;4935637;29;20214;-63
2022/04/22 01:41:45;;;;;;;12.87;11.57;;;9.50;99.90;;;;;;4935199;29;20199;-63
2022/04/22 01:44:12;;;;;;;13.27;12.07;;;9.50;99.90;;;;;;4934686;29;20206;-63
2022/04/22 01:46:39;;;;;;;13.87;12.50;;;9.50;99.90;;;;;;4934661;29;20238;-66
2022/04/22 01:49:06;;;;;;;13.63;12.33;;;9.50;99.90;;;;;;4935517;29;20214;-63
2022/04/22 01:51:32;;;;;;;16.00;12.93;;;9.40;99.90;;;;;;4935231;29;20220;-63
2022/04/22 01:53:59;;;;;;;13.20;11.97;;;9.40;99.90;;;;;;4935258;29;20577;-63
2022/04/22 01:56:28;;;;;;;14.00;12.60;;;9.40;99.90;;;;;;4935259;29;20219;-64
2022/04/22 01:58:55;;;;;;;14.17;12.77;;;9.40;99.90;;;;;;4935160;29;20211;-63
2022/04/22 02:01:21;;;;;;;14.33;12.83;;;9.30;99.90;;;;;;4935380;29;20196;-63
2022/04/22 02:03:48;;;;;;;14.00;12.57;;;9.30;99.90;;;;;;4935312;29;20211;-62
2022/04/22 02:06:15;;;;;;;13.33;12.03;;;9.30;99.90;;;;;;4934785;29;20195;-62
2022/04/22 02:08:42;;;;;;;14.40;13.10;;;9.20;99.90;;;;;;4935283;29;20207;-63
2022/04/22 02:11:09;;;;;;;15.13;13.63;;;9.20;99.90;;;;;;4935027;29;20298;-63
2022/04/22 02:13:37;;;;;;;15.30;13.80;;;9.20;99.90;;;;;;4934825;29;20218;-63
2022/04/22 02:16:06;;;;;;;14.80;13.40;;;9.10;99.90;;;;;;4935286;29;20207;-63
2022/04/22 02:18:36;;;;;;;14.20;12.87;;;9.10;99.90;;;;;;4935182;29;20271;-63
2022/04/22 02:21:04;;;;;;;14.57;13.07;;;9.10;99.90;;;;;;4934920;29;20250;-63
2022/04/22 02:23:31;;;;;;;15.53;14.03;;;9.10;99.90;;;;;;4934249;29;20670;-63
2022/04/22 02:25:58;;;;;;;15.30;13.80;;;9.00;99.90;;;;;;4935078;29;20208;-63
2022/04/22 02:28:34;;;;;;;14.47;13.07;;;9.10;99.90;;;;;;4935126;29;20204;-63
2022/04/22 02:31:05;;;;;;;16.03;14.10;;;9.00;99.90;;;;;;4935125;29;20186;-62
2022/04/22 02:33:33;;;;;;;15.93;14.23;;;9.00;99.90;;;;;;4935221;29;20240;-63
2022/04/22 02:36:01;;;;;;;16.27;14.70;;;9.00;99.90;;;;;;4936647;29;20198;-62
2022/04/22 02:38:29;;;;;;;15.17;13.63;;;9.00;99.90;;;;;;4938834;29;20218;-63
2022/04/22 02:46:27;;;;;;;16.30;14.67;;;8.80;99.90;;;;;;4938658;29;20601;-63
2022/04/22 02:48:57;;;;;;;15.27;13.67;;;8.80;99.90;;;;;;4938440;29;20250;-63
2022/04/22 02:51:25;;;;;;;15.03;13.63;;;8.80;99.90;;;;;;4938142;29;20256;-63
2022/04/22 02:53:52;;;;;;;16.10;14.40;;;8.80;99.90;;;;;;4938149;29;20207;-63
2022/04/22 02:56:21;;;;;;;15.03;13.63;;;8.80;99.90;;;;;;4938176;29;20207;-63
2022/04/22 02:58:48;;;;;;;16.33;14.50;;;8.80;99.90;;;;;;4937941;29;20204;-63
2022/04/22 03:01:16;;;;;;;16.73;14.97;;;8.80;99.90;;;;;;4938475;29;20605;-63
2022/04/22 03:03:44;;;;;;;15.47;14.07;;;8.80;99.90;;;;;;4939707;29;20216;-65
2022/04/22 03:06:11;;;;;;;16.37;14.77;;;8.70;99.90;;;;;;4938946;29;20209;-62
2022/04/22 03:08:38;;;;;;;16.07;14.30;;;8.70;99.90;;;;;;4938435;29;20603;-63
2022/04/22 03:11:05;;;;;;;16.40;14.57;;;8.70;99.90;;;;;;4938436;29;20293;-63
2022/04/22 03:13:33;;;;;;;16.47;14.87;;;8.70;99.90;;;;;;4938308;29;20258;-63
2022/04/22 03:16:00;;;;;;;16.43;14.87;;;8.70;99.90;;;;;;4938012;29;20199;-63
2022/04/22 03:18:28;;;;;;;14.93;13.43;;;8.70;99.90;;;;;;4938253;29;20572;-63
2022/04/22 03:20:57;;;;;;;16.23;14.53;;;8.70;99.90;;;;;;4938217;29;20208;-63
2022/04/22 03:23:24;;;;;;;16.33;14.67;;;8.70;99.90;;;;;;4938110;29;20206;-63
2022/04/22 03:25:54;;;;;;;16.10;14.43;;;8.70;99.90;;;;;;4938164;29;20225;-63
2022/04/22 03:28:22;;;;;;;16.47;14.17;;;8.70;99.90;;;;;;4938022;29;20214;-63
2022/04/22 03:30:50;;;;;;;16.23;14.53;;;8.70;99.90;;;;;;4937821;29;20238;-63
2022/04/22 03:33:18;;;;;;;15.17;13.40;;;8.60;99.90;;;;;;4937890;29;20238;-62
2022/04/22 03:35:50;;;;;;;16.53;14.17;;;8.60;99.90;;;;;;4937963;29;20573;-62
2022/04/22 03:38:19;;;;;;;17.10;14.67;;;8.60;99.90;;;;;;4937913;29;20188;-63
2022/04/22 03:40:47;;;;;;;15.70;14.10;;;8.50;99.90;;;;;;4937877;29;20211;-63
2022/04/22 03:43:14;;;;;;;15.63;13.67;;;8.50;99.90;;;;;;4937565;29;20572;-63
2022/04/22 03:45:41;;;;;;;16.77;14.97;;;8.50;99.90;;;;;;4937902;29;20301;-62
2022/04/22 03:48:08;;;;;;;16.90;15.20;;;8.50;99.90;;;;;;4936228;29;20343;-63
2022/04/22 03:50:36;;;;;;;16.60;14.97;;;8.50;99.90;;;;;;4937659;29;20308;-63
2022/04/22 03:53:04;;;;;;;16.17;14.47;;;8.50;99.90;;;;;;4937643;29;20226;-63
2022/04/22 03:55:32;;;;;;;17.20;15.40;;;8.50;99.90;;;;;;4937507;29;20211;-63
2022/04/22 03:58:11;;;;;;;16.63;14.97;;;8.50;99.90;;;;;;4937512;29;20206;-63
2022/04/22 04:00:39;;;;;;;17.13;15.37;;;8.50;99.90;;;;;;4937599;29;20202;-62
2022/04/22 04:03:07;;;;;;;15.73;14.13;;;8.60;99.90;;;;;;4937083;29;20328;-62
2022/04/22 04:05:34;;;;;;;17.20;15.03;;;8.60;99.90;;;;;;4936915;29;20210;-62
2022/04/22 04:08:01;;;;;;;16.73;14.80;;;8.60;99.90;;;;;;4936778;29;20211;-63
2022/04/22 04:16:01;;;;;;;16.03;14.37;;;8.80;99.90;;;;;;4937176;29;20568;-63
2022/04/22 04:18:30;;;;;;;15.73;14.13;;;8.80;99.90;;;;;;4936922;28;20270;-63
2022/04/22 04:23:42;;;;;;;14.80;13.30;;;8.90;99.90;;;;;;4936489;29;20209;-63
2022/04/22 04:26:09;;;;;;;16.77;14.90;;;9.00;99.90;;;;;;4937295;29;20212;-63
2022/04/22 04:28:38;;;;;;;16.53;14.90;;;9.00;99.90;;;;;;4936667;29;20688;-63
2022/04/22 04:31:07;;;;;;;16.10;14.50;;;9.00;99.90;;;;;;4937053;29;20252;-63
2022/04/22 04:33:36;;;;;;;16.20;14.50;;;9.10;99.90;;;;;;4936940;29;20220;-62
2022/04/22 04:36:04;;;;;;;15.87;14.33;;;9.10;99.90;;;;;;4936788;29;20217;-63
2022/04/22 04:38:32;;;;;;;17.03;15.13;;;9.20;99.90;;;;;;4936875;29;20231;-62
2022/04/22 04:40:59;;;;;;;15.90;14.30;;;9.20;99.90;;;;;;4937057;29;20222;-63
2022/04/22 04:43:27;;;;;;;15.73;13.90;;;9.30;99.90;;;;;;4936582;29;20299;-63
2022/04/22 04:45:56;;;;;;;17.63;15.00;;;9.30;99.90;;;;;;4938752;29;20226;-63
2022/04/22 04:48:23;;;;;;;17.23;15.43;;;9.40;99.90;;;;;;4939181;29;20298;-64
2022/04/22 04:50:51;;;;;;;15.97;14.37;;;9.40;99.90;;;;;;4938313;29;20612;-63
2022/04/22 04:53:19;;;;;;;16.63;14.70;;;9.50;99.90;;;;;;4937627;29;20228;-63
2022/04/22 04:55:47;;;;;;;16.53;14.83;;;9.60;99.90;;;;;;4937892;29;20204;-69
2022/04/22 04:58:14;;;;;;;17.03;14.53;;;9.70;99.90;;;;;;4936449;29;20247;-63
2022/04/22 05:00:42;;;;;;;17.40;14.20;;;9.80;99.90;;;;;;4936554;29;20224;-62
2022/04/22 05:03:10;;;;;;;16.00;14.10;;;9.80;99.90;;;;;;4936823;29;20559;-62
2022/04/22 05:05:37;;;;;;;17.00;15.10;;;9.90;99.90;;;;;;4936099;29;20208;-62
2022/04/22 05:08:07;;;;;;;16.30;14.60;;;9.90;99.90;;;;;;4936686;29;20250;-63
2022/04/22 05:10:35;;;;;;;17.77;15.87;;;10.00;99.90;;;;;;4936873;29;20201;-64
2022/04/22 05:13:04;;;;;;;16.90;14.90;;;10.10;99.90;;;;;;4936588;29;20289;-63
2022/04/22 05:15:33;;;;;;;16.33;14.53;;;10.10;99.90;;;;;;4936997;29;20222;-63
2022/04/22 05:18:02;;;;;;;17.50;15.37;;;10.20;99.90;;;;;;4936003;29;20204;-62
2022/04/22 05:20:32;;;;;;;16.27;14.50;;;10.30;99.90;;;;;;4936090;29;20212;-63
2022/04/22 05:22:59;;;;;;;17.07;14.80;;;10.30;99.90;;;;;;4935632;28;20714;-63
2022/04/22 05:25:27;;;;;;;16.73;14.13;;;10.30;99.90;;;;;;4936206;29;20291;-63
2022/04/22 05:27:54;;;;;;;16.77;14.83;;;10.40;99.90;;;;;;4935977;29;20196;-63
2022/04/22 05:33:06;;;;;;;16.73;14.23;;;10.50;99.90;;;;;;4936146;29;20209;-64
2022/04/22 05:35:37;;;;;;;17.53;15.13;;;10.50;99.90;;;;;;4935980;29;20601;-63
2022/04/22 05:38:06;;;;;;;16.47;14.67;;;10.40;99.90;;;;;;4935888;29;20194;-65
2022/04/22 05:40:34;;;;;;;16.37;14.53;;;10.40;99.90;;;;;;4936001;29;20205;-63
2022/04/22 05:43:02;;;;;;;15.63;13.63;;;10.60;99.90;;;;;;4935891;29;20205;-64
2022/04/22 05:45:30;;;;;;;15.50;13.90;;;10.90;99.90;;;;;;4935479;29;20210;-63
2022/04/22 05:47:57;;;;;;;15.67;14.07;;;11.20;99.90;;;;;;4935537;29;20241;-63
2022/04/22 05:50:26;;;;;;;15.40;13.80;;;11.60;99.90;;;;;;4935551;29;20668;-64
2022/04/22 05:52:55;;;;;;;15.20;13.60;;;11.90;99.90;;;;;;4935742;29;20581;-64
2022/04/22 05:55:23;;;;;;;16.33;14.30;;;12.00;99.90;;;;;;4936001;29;20305;-66
2022/04/22 05:57:52;;;;;;;16.90;14.47;;;12.10;99.90;;;;;;4937695;29;20548;-64
2022/04/22 06:00:21;;;;;;;15.33;13.80;;;12.10;99.90;;;;;;4936222;29;20211;-64
2022/04/22 06:02:49;;;;;;;16.77;15.07;;;12.20;99.90;;;;;;4935621;29;20203;-64
2022/04/22 06:05:17;;;;;;;14.87;13.43;;;12.40;99.90;;;;;;4935464;29;20407;-63
2022/04/22 06:07:45;;;;;;;16.40;14.70;;;12.50;99.90;;;;;;4935378;29;20303;-63
2022/04/22 06:10:32;;;;;;;21.07;15.80;;;12.60;99.90;;;;;;4935004;29;20211;-63
2022/04/22 06:13:00;;;;;;;16.83;15.23;;;12.70;99.90;;;;;;4934899;29;20623;-63
2022/04/22 06:15:33;;;;;;;16.63;14.90;;;12.70;99.90;;;;;;4934984;29;20685;-61
2022/04/22 06:18:02;;;;;;;15.67;14.17;;;12.90;99.90;;;;;;4934077;29;20207;-63
2022/04/22 06:20:29;;;;;;;20.70;15.20;;;13.00;99.90;;;;;;4935456;29;20204;-63
2022/04/22 06:22:56;;;;;;;15.63;13.93;;;13.20;99.90;;;;;;4935393;29;20202;-63
2022/04/22 06:25:25;;;;;;;15.10;13.60;;;13.60;99.90;;;;;;4935428;29;20204;-63
2022/04/22 06:27:52;;;;;;;15.87;14.27;;;13.70;99.90;;;;;;4935573;29;20204;-63
2022/04/22 06:30:21;;;;;;;16.93;15.17;;;13.90;99.90;;;;;;4935173;29;20538;-63
2022/04/22 06:32:50;;;;;;;16.77;15.03;;;14.00;99.90;;;;;;4935150;29;20224;-63
2022/04/22 06:35:19;;;;;;;16.63;14.50;;;14.20;99.90;;;;;;4935220;29;20282;-62
2022/04/22 06:37:48;;;;;;;17.37;15.67;;;14.30;99.90;;;;;;4935329;29;20200;-64
2022/04/22 06:45:49;;;;;;;16.20;14.57;;;14.50;99.90;;;;;;4935244;29;20265;-64
2022/04/22 06:48:18;;;;;;;16.53;14.70;;;14.40;99.90;;;;;;4934826;29;20220;-64
2022/04/22 06:50:47;;;;;;;16.83;15.17;;;14.40;99.90;;;;;;4934858;29;20678;-65
2022/04/22 06:53:16;;;;;;;17.70;16.00;;;14.70;99.90;;;;;;4935061;29;20587;-65
2022/04/22 06:55:43;;;;;;;16.77;15.07;;;15.00;99.90;;;;;;4935282;29;20232;-64
2022/04/22 06:58:13;;;;;;;16.90;15.23;;;15.00;99.90;;;;;;4934910;29;20203;-65
2022/04/22 07:00:42;;;;;;;17.43;15.63;;;15.00;99.90;;;;;;4935319;29;20238;-64
2022/04/22 07:03:10;;;;;;;19.30;17.70;;;14.90;99.90;;;;;;4935247;29;20196;-65
2022/04/22 07:05:39;;;;;;;17.73;15.93;;;14.60;99.90;;;;;;4936417;29;20203;-64
2022/04/22 07:08:13;;;;;;;24.07;17.33;;;14.90;99.90;;;;;;4937536;29;20209;-64
2022/04/22 07:10:40;;;;;;;19.53;17.53;;;15.20;99.90;;;;;;4935602;29;20269;-64
2022/04/22 07:13:08;;;;;;;18.60;16.60;;;15.20;99.90;;;;;;4935173;29;20218;-66
2022/04/22 07:15:37;;;;;;;19.33;16.73;;;14.90;99.90;;;;;;4935154;29;20219;-65
2022/04/22 07:18:05;;;;;;;18.40;16.50;;;15.20;99.90;;;;;;4935529;29;20204;-65
2022/04/22 07:20:33;;;;;;;18.57;16.87;;;15.40;99.90;;;;;;4935047;29;20308;-63
2022/04/22 07:23:00;;;;;;;20.60;18.50;;;15.40;99.90;;;;;;4937822;29;20205;-62
2022/04/22 07:25:28;;;;;;;22.93;20.17;;;15.30;99.90;;;;;;4938407;29;20200;-62
2022/04/22 07:27:56;;;;;;;20.37;18.37;;;15.20;99.90;;;;;;4938365;29;20207;-63
2022/04/22 07:30:24;;;;;;;23.73;21.57;;;15.20;99.90;;;;;;4937852;29;20663;-63
2022/04/22 07:32:53;;;;;;;22.33;20.23;;;15.50;99.90;;;;;;4937703;29;20216;-63
2022/04/22 07:35:22;;;;;;;21.17;19.37;;;15.80;99.90;;;;;;4938092;29;20264;-63
2022/04/22 07:37:51;;;;;;;21.17;19.23;;;16.10;99.90;;;;;;4937918;29;20663;-63
2022/04/22 07:40:20;;;;;;;21.27;19.20;;;16.50;99.90;;;;;;4938027;29;20258;-63
2022/04/22 07:48:20;;;;;;;22.47;20.20;;;16.50;99.90;;;;;;4937769;29;20192;-64
2022/04/22 07:50:48;;;;;;;30.43;20.83;;;16.90;99.90;;;;;;4937742;29;20677;-64
2022/04/22 07:53:15;;;;;;;20.60;18.80;;;16.70;99.90;;;;;;4937639;29;20230;-65
2022/04/22 07:55:42;;;;;;;27.03;24.23;;;16.40;99.90;;;;;;4937706;29;20635;-65
2022/04/22 07:58:10;;;;;;;21.57;19.37;;;16.00;99.90;;;;;;4937780;29;20204;-65
2022/04/22 08:00:38;;;;;;;21.20;19.10;;;15.60;99.90;;;;;;4937397;29;20308;-64
2022/04/22 08:03:05;;;;;;;22.30;20.30;;;15.30;99.90;;;;;;4940328;29;20198;-64
2022/04/22 08:05:34;;;;;;;31.83;20.33;;;15.00;99.90;;;;;;4937422;29;20255;-63
2022/04/22 08:08:01;;;;;;;20.30;18.40;;;14.50;99.90;;;;;;4937530;29;20205;-65
2022/04/22 08:10:28;;;;;;;24.33;21.80;;;14.20;99.90;;;;;;4937579;29;20282;-64
2022/04/22 08:12:55;;;;;;;20.27;18.30;;;13.70;99.90;;;;;;4937232;29;20681;-65
2022/04/22 08:15:22;;;;;;;24.30;21.73;;;13.70;99.90;;;;;;4937363;29;20306;-64
2022/04/22 08:17:50;;;;;;;19.83;17.80;;;14.00;99.90;;;;;;4936978;29;20432;-63
2022/04/22 08:20:31;;;;;;;20.17;18.07;;;14.20;99.90;;;;;;4937243;29;20204;-63
2022/04/22 08:23:00;;;;;;;19.50;17.47;;;14.30;99.90;;;;;;4937234;29;20288;-64
2022/04/22 08:25:27;;;;;;;19.23;17.33;;;14.00;99.90;;;;;;4937142;29;20199;-64
2022/04/22 08:27:54;;;;;;;27.10;17.90;;;14.00;99.90;;;;;;4937108;29;20204;-65
2022/04/22 08:30:22;;;;;;;17.93;16.20;;;14.00;99.90;;;;;;4936937;29;20204;-65
2022/04/22 08:32:49;;;;;;;16.40;14.90;;;14.00;99.90;;;;;;4936628;29;20203;-64
2022/04/22 08:35:16;;;;;;;15.87;14.27;;;14.20;99.90;;;;;;4936544;29;20209;-64
2022/04/22 08:37:45;;;;;;;15.93;14.33;;;14.30;99.90;;;;;;4936788;29;20563;-64
2022/04/22 08:40:14;;;;;;;16.50;14.93;;;14.10;99.90;;;;;;4936838;29;20204;-65
2022/04/22 08:42:43;;;;;;;16.40;14.20;;;14.20;99.90;;;;;;4936898;29;20207;-65
2022/04/22 08:45:11;;;;;;;17.43;15.53;;;14.40;99.90;;;;;;4936981;29;20254;-64
2022/04/22 08:50:37;;;;;;;14.40;12.93;;;14.60;99.90;;;;;;4896386;29;20216;-64
2022/04/22 08:53:05;;;;;;;14.47;13.07;;;14.80;99.90;;;;;;4896481;29;20217;-64
2022/04/22 08:55:36;;;;;;;14.40;13.10;;;14.80;99.90;;;;;;4896466;29;20256;-64
2022/04/22 08:58:05;;;;;;;14.10;12.70;;;14.50;99.90;;;;;;4896396;29;20264;-63
2022/04/22 09:00:35;;;;;;;16.03;13.40;;;14.30;99.90;;;;;;4896120;29;20206;-64
2022/04/22 09:03:02;;;;;;;14.67;13.17;;;14.30;99.90;;;;;;4896122;29;20200;-64
2022/04/22 09:05:30;;;;;;;48.23;16.17;;;14.40;99.90;;;;;;4895984;29;20212;-64
2022/04/22 09:07:58;;;;;;;12.53;11.33;;;14.30;99.90;;;;;;4896172;29;20201;-63
2022/04/22 09:10:25;;;;;;;13.80;12.50;;;14.10;99.90;;;;;;4896350;29;20613;-64
2022/04/22 09:12:55;;;;;;;14.93;13.50;;;14.20;99.90;;;;;;4896297;29;20212;-64
2022/04/22 09:15:24;;;;;;;12.80;11.63;;;14.30;99.90;;;;;;4896379;29;20584;-63
2022/04/22 09:17:57;;;;;;;13.13;11.97;;;14.00;99.90;;;;;;4897547;29;20228;-65
2022/04/22 09:20:29;;;;;;;12.80;11.53;;;14.20;99.90;;;;;;4898676;29;20193;-64
2022/04/22 09:22:57;;;;;;;12.83;11.77;;;14.30;99.90;;;;;;4896902;29;20579;-65
2022/04/22 09:25:25;;;;;;;12.23;11.03;;;14.30;99.90;;;;;;4926848;29;20275;-65
2022/04/22 09:28:07;;;;;;;15.10;13.60;;;14.20;99.90;;;;;;4936590;29;20212;-65
2022/04/22 09:30:34;;;;;;;14.23;13.03;;;14.30;99.90;;;;;;4936214;29;20195;-65
2022/04/22 09:33:01;;;;;;;17.27;13.37;;;14.40;99.90;;;;;;4936111;29;20211;-64
2022/04/22 09:35:29;;;;;;;26.40;17.07;;;14.30;99.90;;;;;;4936010;29;20227;-64
2022/04/22 09:43:35;;;;;;;14.20;12.93;;;15.00;92.90;;;;;;4935971;29;20221;-65
2022/04/22 09:46:03;;;;;;;15.73;13.33;;;15.60;61.20;;;;;;4934858;29;20532;-64
2022/04/22 09:48:42;;;;;;;11.60;10.60;;;15.90;42.70;;;;;;4935941;29;20554;-64
2022/04/22 09:51:21;;;;;;;12.30;11.20;;;17.00;22.90;;;;;;4935708;29;20190;-64
2022/04/22 09:53:48;;;;;;;10.90;9.93;;;17.40;12.70;;;;;;4935670;29;20218;-64
2022/04/22 09:56:16;;;;;;;11.57;10.47;;;17.30;2.40;;;;;;4935754;29;20391;-66
2022/04/22 09:58:45;;;;;;;10.80;9.83;;;16.40;3.20;;;;;;4935667;29;20204;-65
2022/04/22 10:01:12;;;;;;;11.50;10.53;;;16.00;14.80;;;;;;4935150;29;20660;-64
2022/04/22 10:03:39;;;;;;;11.60;10.60;;;16.00;6.80;;;;;;4951845;29;20212;-62
2022/04/22 10:06:07;;;;;;;9.63;8.60;;;15.70;1.00;;;;;;4941504;28;20208;-63
2022/04/22 10:08:36;;;;;;;10.50;9.50;;;16.70;1.70;;;;;;4936137;29;20198;-63
2022/04/22 10:11:04;;;;;;;12.73;9.20;;;16.60;1.00;;;;;;4934031;29;20199;-66
2022/04/22 10:13:35;;;;;;;9.50;8.60;;;16.90;1.00;;;;;;4935311;29;20213;-63
2022/04/22 10:16:04;;;;;;;9.33;8.53;;;17.20;1.00;;;;;;4935419;29;20207;-63
2022/04/22 10:18:34;;;;;;;8.40;7.70;;;17.60;1.00;;;;;;4935396;29;20211;-63
2022/04/22 10:21:02;;;;;;;9.10;8.33;;;17.70;1.00;;;;;;4935933;29;20599;-63
2022/04/22 10:23:30;;;;;;;9.20;8.07;;;17.50;1.00;;;;;;4935692;29;20233;-63
2022/04/22 10:26:00;;;;;;;8.67;7.77;;;17.20;1.00;;;;;;4935474;29;20210;-64
2022/04/22 10:28:30;;;;;;;11.27;8.80;;;17.20;1.00;;;;;;4935501;29;20195;-64
2022/04/22 10:31:00;;;;;;;9.47;8.67;;;16.80;1.00;;;;;;4936025;29;20276;-64
2022/04/22 10:33:38;;;;;;;9.67;8.87;;;16.30;1.00;;;;;;4936391;28;20248;-63
2022/04/22 10:36:06;;;;;;;9.73;8.73;;;16.00;1.00;;;;;;4936522;29;20194;-62
2022/04/22 10:38:39;;;;;;;10.33;9.33;;;15.70;1.00;;;;;;4935010;29;20227;-63
2022/04/22 10:41:16;;;;;;;18.90;10.30;;;15.60;1.00;;;;;;4935473;29;20298;-64
2022/04/22 10:43:44;;;;;;;9.50;8.70;;;15.50;1.00;;;;;;4935471;29;20255;-63
2022/04/22 10:49:12;;;;;;;8.77;7.87;;;16.20;1.00;;;;;;4935294;29;20533;-63
2022/04/22 10:52:11;;;;;;;10.03;8.97;;;16.10;1.00;;;;;;4946679;29;20203;-64
2022/04/22 10:55:12;;;;;;;44.97;11.97;;;15.80;1.00;;;;;;4894116;29;20230;-65
2022/04/22 10:57:42;;;;;;;9.77;8.90;;;15.30;1.00;;;;;;4897307;29;20205;-64
2022/04/22 11:00:29;;;;;;;10.30;9.23;;;15.30;1.00;;;;;;4898418;29;20238;-65
2022/04/22 11:03:19;;;;;;;9.47;8.50;;;15.40;1.00;;;;;;4898663;29;20194;-66
2022/04/22 11:05:56;;;;;;;9.20;8.27;;;15.60;1.00;;;;;;4894889;29;20436;-63
2022/04/22 11:08:29;;;;;;;8.53;7.60;;;15.70;1.00;;;;;;4899523;29;20695;-67
2022/04/22 11:11:15;;;;;;;14.83;9.50;;;15.60;1.00;;;;;;4899490;29;20224;-66
2022/04/22 11:13:52;;;;;;;10.00;7.37;;;15.60;1.00;;;;;;4898122;29;20193;-64
2022/04/22 11:16:39;;;;;;;9.40;8.57;;;15.80;1.00;;;;;;4898454;29;20197;-64
2022/04/22 11:19:24;;;;;;;7.77;6.33;;;15.90;1.00;;;;;;4897751;29;20197;-65
2022/04/22 11:22:07;;;;;;;8.40;7.37;;;16.50;1.00;;;;;;4898047;29;20285;-65
2022/04/22 11:24:34;;;;;;;9.47;7.13;;;16.70;1.00;;;;;;4898049;29;20200;-65
2022/04/22 11:27:08;;;;;;;8.27;6.70;;;16.90;1.00;;;;;;4897991;29;20225;-66
2022/04/22 11:29:35;;;;;;;9.37;7.97;;;16.90;1.00;;;;;;4908289;29;20213;-66
2022/04/22 11:32:08;;;;;;;7.07;6.37;;;17.10;1.00;;;;;;4957273;28;20202;-65
2022/04/22 11:35:03;;;;;;;6.90;6.27;;;17.10;1.00;;;;;;4956729;28;20302;-65
2022/04/22 11:37:33;;;;;;;8.10;7.23;;;17.20;1.00;;;;;;4957211;28;20195;-66
2022/04/22 11:40:00;;;;;;;7.23;6.63;;;17.40;1.00;;;;;;4957198;28;20393;-66
2022/04/22 11:42:28;;;;;;;6.97;6.37;;;17.20;1.00;;;;;;4957106;28;20206;-67
2022/04/22 11:45:06;;;;;;;8.50;7.80;;;17.10;1.00;;;;;;4957286;28;20230;-66
2022/04/22 11:47:33;;;;;;;8.87;7.90;;;16.90;1.00;;;;;;4957193;28;20230;-66
2022/04/22 11:50:00;;;;;;;8.03;7.10;;;16.90;1.00;;;;;;4961397;28;20214;-67
2022/04/22 11:52:29;;;;;;;8.17;7.47;;;17.20;1.00;;;;;;4957124;28;20660;-66
2022/04/22 11:55:01;;;;;;;8.37;7.40;;;17.40;1.00;;;;;;4956924;28;20219;-67
2022/04/22 11:57:33;;;;;;;8.20;6.53;;;17.50;1.00;;;;;;4957111;28;20191;-67
2022/04/22 12:05:35;;;;;;;12.33;8.17;;;18.70;1.00;;;;;;4915985;29;20187;-65
2022/04/22 12:08:05;;;;;;;8.80;8.05;;;19.50;1.00;;;;;;4915062;29;20745;-66
2022/04/22 12:10:34;;;;;;;9.70;8.97;;;20.30;1.00;;;;;;4915888;29;20304;-67
2022/04/22 12:13:02;;;;;;;13.23;10.02;;;20.10;1.00;;;;;;4915755;29;20267;-67
2022/04/22 12:15:30;;;;;;;10.98;9.70;;;19.20;1.00;;;;;;4915653;29;20613;-67
2022/04/22 12:17:57;;;;;;;11.97;10.97;;;18.60;1.00;;;;;;4915686;29;20215;-67
2022/04/22 12:20:26;;;;;;;15.57;11.10;;;18.20;1.00;;;;;;4915815;29;20702;-66
2022/04/22 12:22:55;;;;;;;12.67;10.37;;;17.90;1.00;;;;;;4915937;29;20592;-66
2022/04/22 12:25:23;;;;;;;17.10;12.83;;;17.60;1.00;;;;;;4915658;29;20204;-67
2022/04/22 12:28:13;;;;;;;10.53;9.73;;;17.50;1.00;;;;;;4915762;29;20264;-67
2022/04/22 12:30:41;;;;;;;10.87;9.97;;;17.50;1.00;;;;;;4915862;29;20189;-67
2022/04/22 12:33:18;;;;;;;9.87;9.07;;;18.40;1.00;;;;;;4915719;29;20211;-66
2022/04/22 12:35:45;;;;;;;9.27;8.33;;;18.40;1.00;;;;;;4915627;29;20224;-66
2022/04/22 12:38:14;;;;;;;8.63;7.87;;;18.60;1.00;;;;;;4915693;29;20220;-67
2022/04/22 12:40:47;;;;;;;10.17;7.90;;;18.90;1.00;;;;;;4956053;28;20203;-67
2022/04/22 12:43:27;;;;;;;9.93;9.03;;;18.50;1.00;;;;;;4955765;28;20232;-67
2022/04/22 12:54:17;;;;;;;9.25;8.35;;;19.40;1.00;;;;;;4955506;29;20192;-67
2022/04/22 12:56:53;;;;;;;12.77;8.20;;;18.60;1.00;;;;;;4955069;28;20218;-67
2022/04/22 12:59:21;;;;;;;8.37;7.67;;;18.00;1.00;;;;;;4955077;28;20191;-66
2022/04/22 13:01:49;;;;;;;24.37;12.07;;;17.70;1.00;;;;;;4955243;28;20218;-66
2022/04/22 13:04:24;;;;;;;9.30;8.40;;;17.50;1.00;;;;;;4955501;28;20195;-65
2022/04/22 13:06:51;;;;;;;8.57;7.67;;;17.80;1.00;;;;;;4955320;28;20817;-65
2022/04/22 13:09:20;;;;;;;9.13;7.40;;;17.80;1.00;;;;;;4955733;28;20569;-66
2022/04/22 13:11:49;;;;;;;8.43;7.63;;;17.30;1.00;;;;;;4955483;28;20210;-66
2022/04/22 13:14:17;;;;;;;8.57;7.30;;;17.20;1.00;;;;;;4955539;28;20297;-66
2022/04/22 13:16:45;;;;;;;9.70;7.47;;;17.10;1.00;;;;;;4955350;28;20217;-66
2022/04/22 13:19:12;;;;;;;8.77;7.77;;;16.90;1.00;;;;;;4955150;28;20210;-66
2022/04/22 13:21:40;;;;;;;7.23;6.63;;;17.20;1.00;;;;;;4955343;28;20211;-66
2022/04/22 13:24:08;;;;;;;7.63;7.10;;;17.70;1.00;;;;;;4955523;28;20199;-66
2022/04/22 13:26:36;;;;;;;8.07;7.23;;;18.50;1.00;;;;;;4956143;28;20239;-68
2022/04/22 13:29:05;;;;;;;8.57;7.67;;;19.00;1.00;;;;;;4959038;28;20681;-67
2022/04/22 13:31:33;;;;;;;30.43;12.47;;;18.90;1.00;;;;;;4955653;28;20211;-67
2022/04/22 13:34:03;;;;;;;9.30;8.40;;;18.50;1.00;;;;;;4954753;28;20235;-66
2022/04/22 13:36:31;;;;;;;11.87;9.20;;;17.80;1.00;;;;;;4955124;28;20207;-66
2022/04/22 13:38:58;;;;;;;9.30;8.47;;;17.70;1.00;;;;;;4955167;28;20301;-66
2022/04/22 13:41:25;;;;;;;11.70;8.53;;;17.80;1.00;;;;;;4955010;28;20592;-67
2022/04/22 13:43:52;;;;;;;9.47;8.57;;;17.60;1.00;;;;;;4954945;28;20215;-67
2022/04/22 13:54:42;;;;;;;11.17;7.93;;;17.30;1.00;;;;;;4914261;29;20232;-67